createdAt,value
2023-02-27T00:00:35.335Z,73.02
2023-02-27T00:01:35.321Z,72.94
2023-02-27T00:02:35.341Z,73.02
2023-02-27T00:03:35.301Z,73.00
2023-02-27T00:04:35.267Z,73.08
2023-02-27T00:05:35.270Z,73.17
2023-02-27T00:06:35.250Z,73.21
2023-02-27T00:07:35.246Z,73.32
2023-02-27T00:08:35.274Z,73.32
2023-02-27T00:09:35.256Z,73.33
2023-02-27T00:10:35.200Z,73.29
2023-02-27T00:11:35.188Z,73.19
2023-02-27T00:12:35.175Z,73.15
2023-02-27T00:13:35.155Z,73.13
2023-02-27T00:14:35.144Z,72.97
2023-02-27T00:15:35.134Z,73.00
2023-02-27T00:16:35.150Z,73.01
2023-02-27T00:17:35.097Z,73.07
2023-02-27T00:18:35.102Z,73.14
2023-02-27T00:19:35.077Z,73.16
2023-02-27T00:20:35.095Z,73.16
2023-02-27T00:21:36.760Z,73.21
2023-02-27T00:22:35.063Z,73.29
2023-02-27T00:23:35.022Z,73.24
2023-02-27T00:24:35.023Z,73.41
2023-02-27T00:25:35.011Z,73.67
2023-02-27T00:26:34.993Z,73.75
2023-02-27T00:27:34.973Z,73.61
2023-02-27T00:28:34.964Z,73.51
2023-02-27T00:29:34.954Z,73.39
2023-02-27T00:30:34.981Z,73.32
2023-02-27T00:31:34.988Z,73.39
2023-02-27T00:32:35.006Z,73.45
2023-02-27T00:33:34.890Z,73.54
2023-02-27T00:34:34.920Z,73.60
2023-02-27T00:35:34.873Z,73.65
2023-02-27T00:36:34.890Z,73.76
2023-02-27T00:37:34.848Z,73.95
2023-02-27T00:38:34.873Z,73.97
2023-02-27T00:39:34.826Z,73.82
2023-02-27T00:40:34.818Z,73.76
2023-02-27T00:41:34.810Z,73.77
2023-02-27T00:42:34.794Z,73.87
2023-02-27T00:43:34.776Z,73.69
2023-02-27T00:44:34.758Z,73.72
2023-02-27T00:45:34.767Z,73.71
2023-02-27T00:46:34.818Z,73.84
2023-02-27T00:47:34.719Z,73.93
2023-02-27T00:48:34.712Z,73.96
2023-02-27T00:49:34.696Z,73.95
2023-02-27T00:50:34.710Z,73.94
2023-02-27T00:51:34.680Z,73.95
2023-02-27T00:52:34.680Z,73.98
2023-02-27T00:53:34.652Z,74.07
2023-02-27T00:54:34.630Z,74.06
2023-02-27T00:55:34.634Z,74.16
2023-02-27T00:56:34.619Z,74.32
2023-02-27T00:57:34.616Z,74.31
2023-02-27T00:58:34.602Z,74.36
2023-02-27T00:59:34.575Z,74.34
2023-02-27T01:00:34.629Z,74.31
2023-02-27T01:01:34.551Z,74.42
2023-02-27T01:02:34.569Z,74.48
2023-02-27T01:03:34.520Z,74.39
2023-02-27T01:04:34.522Z,74.28
2023-02-27T01:05:34.501Z,74.14
2023-02-27T01:06:34.535Z,74.06
2023-02-27T01:07:34.472Z,74.02
2023-02-27T01:08:34.499Z,74.11
2023-02-27T01:09:34.449Z,74.26
2023-02-27T01:10:34.435Z,74.40
2023-02-27T01:11:34.425Z,74.32
2023-02-27T01:12:34.427Z,74.22
2023-02-27T01:13:34.396Z,74.24
2023-02-27T01:14:34.390Z,74.28
2023-02-27T01:15:34.376Z,74.26
2023-02-27T01:16:34.385Z,74.32
2023-02-27T01:17:34.370Z,74.34
2023-02-27T01:18:34.363Z,74.43
2023-02-27T01:19:34.325Z,74.50
2023-02-27T01:20:34.330Z,74.50
2023-02-27T01:21:34.299Z,74.54
2023-02-27T01:22:34.303Z,74.57
2023-02-27T01:23:34.289Z,74.71
2023-02-27T01:24:34.322Z,74.80
2023-02-27T01:25:34.244Z,74.71
2023-02-27T01:26:34.247Z,74.65
2023-02-27T01:27:34.235Z,74.66
2023-02-27T01:28:34.216Z,74.74
2023-02-27T01:29:34.203Z,74.77
2023-02-27T01:30:34.206Z,74.80
2023-02-27T01:31:34.223Z,74.74
2023-02-27T01:32:34.203Z,74.76
2023-02-27T01:33:34.144Z,74.82
2023-02-27T01:34:34.442Z,74.70
2023-02-27T01:35:34.141Z,74.61
2023-02-27T01:36:34.109Z,74.47
2023-02-27T01:37:34.103Z,74.44
2023-02-27T01:38:34.097Z,74.42
2023-02-27T01:39:34.075Z,74.48
2023-02-27T01:40:34.077Z,74.57
2023-02-27T01:41:34.060Z,74.67
2023-02-27T01:42:34.053Z,74.65
2023-02-27T01:43:34.023Z,74.65
2023-02-27T01:44:34.030Z,74.63
2023-02-27T01:45:34.038Z,74.67
2023-02-27T01:46:34.010Z,74.69
2023-02-27T01:47:33.982Z,74.64
2023-02-27T01:48:33.967Z,74.54
2023-02-27T01:49:34.019Z,74.51
2023-02-27T01:50:33.942Z,74.59
2023-02-27T01:51:33.938Z,74.69
2023-02-27T01:52:33.915Z,74.60
2023-02-27T01:53:33.904Z,74.47
2023-02-27T01:54:33.885Z,74.36
2023-02-27T01:55:33.890Z,74.33
2023-02-27T01:56:33.877Z,74.31
2023-02-27T01:57:33.849Z,74.29
2023-02-27T01:58:33.857Z,74.22
2023-02-27T01:59:33.824Z,74.27
2023-02-27T02:00:33.825Z,74.19
2023-02-27T02:01:33.836Z,74.13
2023-02-27T02:02:33.829Z,74.17
2023-02-27T02:03:33.792Z,74.26
2023-02-27T02:04:33.791Z,74.19
2023-02-27T02:05:33.757Z,74.23
2023-02-27T02:06:33.741Z,74.20
2023-02-27T02:07:33.772Z,74.17
2023-02-27T02:08:33.725Z,74.13
2023-02-27T02:09:33.711Z,74.01
2023-02-27T02:10:33.699Z,74.00
2023-02-27T02:11:33.672Z,73.89
2023-02-27T02:12:33.663Z,73.98
2023-02-27T02:13:33.664Z,74.02
2023-02-27T02:14:33.637Z,73.93
2023-02-27T02:15:33.623Z,73.88
2023-02-27T02:16:33.640Z,73.72
2023-02-27T02:17:33.603Z,73.74
2023-02-27T02:18:33.592Z,73.80
2023-02-27T02:19:33.581Z,73.83
2023-02-27T02:20:34.146Z,73.83
2023-02-27T02:21:33.545Z,73.93
2023-02-27T02:22:33.539Z,73.99
2023-02-27T02:23:33.530Z,74.02
2023-02-27T02:24:33.517Z,73.93
2023-02-27T02:25:33.499Z,73.85
2023-02-27T02:26:33.791Z,73.86
2023-02-27T02:27:33.482Z,73.92
2023-02-27T02:28:33.467Z,73.94
2023-02-27T02:29:33.459Z,74.02
2023-02-27T02:30:33.681Z,73.98
2023-02-27T02:31:33.532Z,73.83
2023-02-27T02:32:33.423Z,73.88
2023-02-27T02:33:33.408Z,73.91
2023-02-27T02:34:33.403Z,73.79
2023-02-27T02:35:33.399Z,73.79
2023-02-27T02:36:33.363Z,73.82
2023-02-27T02:37:33.359Z,73.92
2023-02-27T02:38:33.336Z,74.08
2023-02-27T02:39:33.338Z,74.04
2023-02-27T02:40:33.335Z,74.04
2023-02-27T02:41:33.306Z,74.10
2023-02-27T02:42:33.296Z,74.15
2023-02-27T02:43:33.293Z,74.20
2023-02-27T02:44:33.275Z,74.21
2023-02-27T02:45:33.264Z,74.01
2023-02-27T02:46:33.247Z,73.98
2023-02-27T02:47:33.230Z,73.99
2023-02-27T02:48:33.233Z,74.01
2023-02-27T02:49:33.206Z,73.92
2023-02-27T02:50:33.253Z,73.85
2023-02-27T02:51:33.194Z,73.86
2023-02-27T02:52:33.170Z,73.87
2023-02-27T02:53:36.877Z,73.80
2023-02-27T02:54:33.152Z,73.68
2023-02-27T02:55:33.137Z,73.65
2023-02-27T02:56:33.117Z,73.59
2023-02-27T02:57:33.129Z,73.59
2023-02-27T02:58:33.092Z,73.61
2023-02-27T02:59:33.073Z,73.66
2023-02-27T03:00:33.072Z,73.60
2023-02-27T03:01:33.150Z,73.62
2023-02-27T03:02:33.090Z,73.54
2023-02-27T03:03:33.032Z,73.54
2023-02-27T03:04:33.059Z,73.60
2023-02-27T03:05:33.032Z,73.53
2023-02-27T03:06:32.990Z,73.45
2023-02-27T03:07:33.029Z,73.48
2023-02-27T03:08:32.992Z,73.50
2023-02-27T03:09:32.972Z,73.58
2023-02-27T03:10:32.946Z,73.59
2023-02-27T03:11:32.932Z,73.55
2023-02-27T03:12:32.918Z,73.58
2023-02-27T03:13:32.911Z,73.62
2023-02-27T03:14:32.889Z,73.51
2023-02-27T03:15:32.962Z,73.46
2023-02-27T03:16:32.870Z,73.44
2023-02-27T03:17:32.853Z,73.58
2023-02-27T03:18:32.841Z,73.64
2023-02-27T03:19:32.822Z,73.67
2023-02-27T03:20:32.816Z,73.65
2023-02-27T03:21:32.817Z,73.62
2023-02-27T03:22:32.828Z,73.57
2023-02-27T03:23:32.773Z,73.62
2023-02-27T03:24:32.768Z,73.67
2023-02-27T03:25:32.775Z,73.65
2023-02-27T03:26:32.731Z,73.61
2023-02-27T03:27:32.737Z,73.58
2023-02-27T03:28:32.709Z,73.59
2023-02-27T03:29:32.706Z,73.66
2023-02-27T03:30:32.716Z,73.73
2023-02-27T03:31:32.776Z,73.69
2023-02-27T03:32:32.694Z,73.58
2023-02-27T03:33:32.639Z,73.56
2023-02-27T03:34:32.627Z,73.57
2023-02-27T03:35:32.621Z,73.51
2023-02-27T03:36:32.611Z,73.59
2023-02-27T03:37:32.593Z,73.64
2023-02-27T03:38:32.579Z,73.61
2023-02-27T03:39:32.575Z,73.63
2023-02-27T03:40:32.555Z,73.60
2023-02-27T03:41:32.562Z,73.58
2023-02-27T03:42:32.541Z,73.64
2023-02-27T03:43:32.514Z,73.71
2023-02-27T03:44:32.504Z,73.57
2023-02-27T03:45:32.498Z,73.45
2023-02-27T03:46:32.514Z,73.45
2023-02-27T03:47:32.502Z,73.47
2023-02-27T03:48:32.463Z,73.49
2023-02-27T03:49:32.455Z,73.45
2023-02-27T03:50:32.422Z,73.32
2023-02-27T03:51:32.431Z,73.37
2023-02-27T03:52:32.446Z,73.44
2023-02-27T03:53:32.387Z,73.53
2023-02-27T03:54:32.377Z,73.57
2023-02-27T03:55:32.364Z,73.55
2023-02-27T03:56:32.357Z,73.55
2023-02-27T03:57:32.337Z,73.58
2023-02-27T03:58:32.326Z,73.59
2023-02-27T03:59:32.309Z,73.59
2023-02-27T04:00:32.303Z,73.55
2023-02-27T04:01:32.330Z,73.50
2023-02-27T04:02:32.294Z,73.43
2023-02-27T04:03:32.257Z,73.31
2023-02-27T04:04:32.246Z,73.26
2023-02-27T04:05:32.245Z,73.25
2023-02-27T04:06:32.226Z,73.33
2023-02-27T04:07:32.223Z,73.36
2023-02-27T04:08:32.195Z,73.42
2023-02-27T04:09:32.187Z,73.38
2023-02-27T04:10:32.174Z,73.44
2023-02-27T04:11:32.161Z,73.46
2023-02-27T04:12:32.156Z,73.52
2023-02-27T04:13:32.136Z,73.46
2023-02-27T04:14:32.121Z,73.51
2023-02-27T04:15:32.105Z,73.56
2023-02-27T04:16:32.097Z,73.47
2023-02-27T04:17:32.102Z,73.47
2023-02-27T04:18:32.084Z,73.52
2023-02-27T04:19:32.067Z,73.56
2023-02-27T04:20:32.042Z,73.49
2023-02-27T04:21:32.044Z,73.39
2023-02-27T04:22:32.027Z,73.26
2023-02-27T04:23:32.018Z,73.30
2023-02-27T04:24:31.989Z,73.38
2023-02-27T04:25:32.005Z,73.45
2023-02-27T04:26:31.968Z,73.51
2023-02-27T04:27:31.970Z,73.55
2023-02-27T04:28:32.074Z,73.57
2023-02-27T04:29:31.933Z,73.52
2023-02-27T04:30:31.918Z,73.52
2023-02-27T04:31:32.086Z,73.58
2023-02-27T04:32:32.114Z,73.46
2023-02-27T04:33:31.891Z,73.39
2023-02-27T04:34:31.872Z,73.44
2023-02-27T04:35:31.881Z,73.43
2023-02-27T04:36:31.849Z,73.41
2023-02-27T04:37:31.844Z,73.31
2023-02-27T04:38:31.819Z,73.23
2023-02-27T04:39:31.809Z,73.25
2023-02-27T04:40:31.793Z,73.25
2023-02-27T04:41:31.789Z,73.23
2023-02-27T04:42:31.791Z,73.10
2023-02-27T04:43:31.766Z,72.99
2023-02-27T04:44:31.751Z,73.04
2023-02-27T04:45:31.836Z,73.03
2023-02-27T04:46:31.742Z,73.06
2023-02-27T04:47:31.712Z,73.13
2023-02-27T04:48:31.710Z,73.08
2023-02-27T04:49:31.687Z,73.00
2023-02-27T04:50:31.664Z,72.96
2023-02-27T04:51:31.667Z,72.98
2023-02-27T04:52:31.643Z,73.02
2023-02-27T04:53:31.646Z,73.10
2023-02-27T04:54:31.622Z,73.12
2023-02-27T04:55:31.611Z,72.98
2023-02-27T04:56:31.607Z,72.80
2023-02-27T04:57:31.589Z,72.83
2023-02-27T04:58:31.575Z,72.76
2023-02-27T04:59:31.588Z,72.68
2023-02-27T05:00:31.554Z,72.78
2023-02-27T05:01:31.593Z,72.77
2023-02-27T05:02:31.611Z,72.81
2023-02-27T05:03:31.515Z,72.90
2023-02-27T05:04:31.517Z,72.99
2023-02-27T05:05:31.506Z,73.05
2023-02-27T05:06:31.471Z,73.03
2023-02-27T05:07:31.458Z,73.00
2023-02-27T05:08:31.448Z,72.94
2023-02-27T05:09:31.451Z,72.89
2023-02-27T05:10:31.431Z,72.90
2023-02-27T05:11:31.418Z,73.05
2023-02-27T05:12:31.391Z,73.08
2023-02-27T05:13:31.413Z,73.12
2023-02-27T05:14:31.363Z,73.10
2023-02-27T05:15:31.372Z,73.11
2023-02-27T05:16:32.043Z,73.18
2023-02-27T05:17:31.337Z,73.29
2023-02-27T05:18:31.330Z,73.48
2023-02-27T05:19:31.327Z,73.56
2023-02-27T05:20:31.288Z,73.44
2023-02-27T05:21:31.287Z,73.41
2023-02-27T05:22:31.268Z,73.42
2023-02-27T05:23:31.522Z,73.48
2023-02-27T05:24:31.240Z,73.48
2023-02-27T05:25:31.243Z,73.45
2023-02-27T05:26:31.220Z,73.43
2023-02-27T05:27:31.203Z,73.35
2023-02-27T05:28:31.200Z,73.23
2023-02-27T05:29:31.181Z,73.33
2023-02-27T05:30:31.159Z,73.33
2023-02-27T05:31:31.207Z,73.32
2023-02-27T05:32:31.224Z,73.35
2023-02-27T05:33:31.136Z,73.37
2023-02-27T05:34:31.122Z,73.28
2023-02-27T05:35:31.151Z,73.30
2023-02-27T05:36:31.104Z,73.30
2023-02-27T05:37:31.084Z,73.36
2023-02-27T05:38:31.070Z,73.41
2023-02-27T05:39:31.107Z,73.47
2023-02-27T05:40:31.078Z,73.52
2023-02-27T05:41:31.213Z,73.61
2023-02-27T05:42:31.078Z,73.58
2023-02-27T05:43:31.017Z,73.52
2023-02-27T05:44:31.005Z,73.49
2023-02-27T05:45:30.997Z,73.55
2023-02-27T05:46:30.989Z,73.54
2023-02-27T05:47:30.973Z,73.60
2023-02-27T05:48:30.936Z,73.56
2023-02-27T05:49:30.944Z,73.55
2023-02-27T05:50:30.918Z,73.53
2023-02-27T05:51:30.925Z,73.50
2023-02-27T05:52:30.902Z,73.56
2023-02-27T05:53:30.879Z,73.59
2023-02-27T05:54:30.884Z,73.57
2023-02-27T05:55:30.856Z,73.52
2023-02-27T05:56:30.879Z,73.38
2023-02-27T05:57:30.837Z,73.23
2023-02-27T05:58:30.836Z,73.21
2023-02-27T05:59:30.873Z,73.39
2023-02-27T06:00:30.817Z,73.39
2023-02-27T06:01:30.800Z,73.36
2023-02-27T06:02:30.865Z,73.29
2023-02-27T06:03:30.898Z,73.24
2023-02-27T06:04:30.770Z,73.06
2023-02-27T06:05:30.793Z,73.15
2023-02-27T06:06:30.718Z,73.21
2023-02-27T06:07:30.737Z,73.38
2023-02-27T06:08:30.711Z,73.50
2023-02-27T06:09:30.706Z,73.45
2023-02-27T06:10:30.686Z,73.42
2023-02-27T06:11:30.663Z,73.30
2023-02-27T06:12:30.650Z,73.20
2023-02-27T06:13:30.638Z,73.41
2023-02-27T06:14:30.625Z,73.60
2023-02-27T06:15:30.617Z,73.61
2023-02-27T06:16:31.019Z,73.64
2023-02-27T06:17:30.607Z,73.69
2023-02-27T06:18:30.579Z,73.59
2023-02-27T06:19:30.569Z,73.59
2023-02-27T06:20:30.574Z,73.51
2023-02-27T06:21:30.561Z,73.54
2023-02-27T06:22:30.520Z,73.42
2023-02-27T06:23:30.517Z,73.47
2023-02-27T06:24:30.499Z,73.50
2023-02-27T06:25:30.499Z,73.58
2023-02-27T06:26:30.480Z,73.60
2023-02-27T06:27:30.472Z,73.57
2023-02-27T06:28:30.491Z,73.46
2023-02-27T06:29:30.440Z,73.41
2023-02-27T06:30:30.503Z,73.26
2023-02-27T06:31:30.447Z,73.29
2023-02-27T06:32:30.404Z,73.24
2023-02-27T06:33:30.401Z,73.31
2023-02-27T06:34:30.371Z,73.31
2023-02-27T06:35:30.388Z,73.42
2023-02-27T06:36:30.722Z,73.52
2023-02-27T06:37:30.351Z,73.49
2023-02-27T06:38:30.333Z,73.49
2023-02-27T06:39:30.331Z,73.49
2023-02-27T06:40:30.297Z,73.35
2023-02-27T06:41:30.309Z,73.25
2023-02-27T06:42:30.272Z,73.33
2023-02-27T06:43:30.275Z,73.19
2023-02-27T06:44:30.279Z,73.31
2023-02-27T06:45:30.253Z,73.39
2023-02-27T06:46:30.663Z,73.38
2023-02-27T06:47:30.219Z,73.24
2023-02-27T06:48:30.260Z,73.19
2023-02-27T06:49:30.185Z,73.22
2023-02-27T06:50:30.190Z,73.20
2023-02-27T06:51:30.172Z,73.17
2023-02-27T06:52:30.150Z,73.23
2023-02-27T06:53:30.142Z,73.26
2023-02-27T06:54:30.134Z,73.23
2023-02-27T06:55:30.129Z,73.22
2023-02-27T06:56:30.116Z,73.24
2023-02-27T06:57:30.096Z,73.33
2023-02-27T06:58:30.096Z,73.29
2023-02-27T06:59:30.069Z,73.30
2023-02-27T07:00:30.182Z,73.36
2023-02-27T07:01:30.158Z,73.40
2023-02-27T07:02:30.025Z,73.32
2023-02-27T07:03:30.025Z,73.54
2023-02-27T07:04:30.047Z,73.69
2023-02-27T07:05:29.992Z,73.88
2023-02-27T07:07:36.065Z,73.92
2023-02-27T07:07:41.659Z,73.81
2023-02-27T07:08:29.964Z,73.65
2023-02-27T07:09:29.962Z,73.66
2023-02-27T07:10:29.980Z,73.78
2023-02-27T07:11:29.923Z,73.73
2023-02-27T07:12:29.902Z,73.52
2023-02-27T07:13:29.897Z,73.47
2023-02-27T07:14:29.884Z,73.26
2023-02-27T07:15:29.880Z,73.25
2023-02-27T07:16:30.011Z,73.42
2023-02-27T07:17:29.840Z,73.69
2023-02-27T07:18:29.852Z,74.33
2023-02-27T07:19:29.815Z,74.54
2023-02-27T07:20:29.818Z,74.46
2023-02-27T07:21:29.805Z,74.17
2023-02-27T07:22:29.794Z,73.81
2023-02-27T07:23:29.766Z,73.41
2023-02-27T07:24:29.761Z,73.23
2023-02-27T07:25:29.760Z,73.26
2023-02-27T07:26:29.965Z,73.49
2023-02-27T07:27:29.748Z,73.48
2023-02-27T07:28:29.756Z,73.37
2023-02-27T07:29:29.700Z,73.28
2023-02-27T07:30:29.702Z,73.14
2023-02-27T07:31:29.686Z,72.96
2023-02-27T07:32:29.666Z,72.63
2023-02-27T07:33:29.646Z,72.38
2023-02-27T07:34:29.635Z,72.35
2023-02-27T07:35:29.639Z,72.11
2023-02-27T07:36:29.682Z,72.15
2023-02-27T07:37:29.614Z,71.88
2023-02-27T07:38:29.588Z,71.85
2023-02-27T07:39:29.576Z,71.72
2023-02-27T07:40:29.572Z,71.80
2023-02-27T07:41:31.124Z,71.74
2023-02-27T07:42:29.558Z,71.71
2023-02-27T07:43:29.525Z,71.69
2023-02-27T07:44:29.522Z,71.67
2023-02-27T07:45:29.505Z,71.72
2023-02-27T07:46:29.932Z,71.78
2023-02-27T07:47:29.498Z,71.83
2023-02-27T07:48:29.477Z,71.80
2023-02-27T07:49:29.465Z,71.85
2023-02-27T07:50:29.473Z,71.79
2023-02-27T07:51:29.426Z,71.76
2023-02-27T07:53:29.406Z,71.72
2023-02-27T07:54:29.397Z,71.66
2023-02-27T07:55:29.408Z,71.60
2023-02-27T07:56:29.724Z,71.47
2023-02-27T07:57:29.354Z,71.61
2023-02-27T07:58:29.351Z,71.70
2023-02-27T07:59:29.326Z,71.64
2023-02-27T08:00:29.328Z,71.48
2023-02-27T08:01:29.304Z,71.36
2023-02-27T08:02:29.318Z,71.36
2023-02-27T08:03:29.294Z,71.51
2023-02-27T08:04:29.363Z,71.74
2023-02-27T08:05:29.262Z,71.48
2023-02-27T08:06:29.693Z,71.34
2023-02-27T08:07:29.252Z,70.98
2023-02-27T08:08:29.231Z,70.89
2023-02-27T08:09:29.196Z,70.71
2023-02-27T08:10:29.298Z,70.75
2023-02-27T08:11:29.546Z,70.66
2023-02-27T08:12:29.174Z,70.87
2023-02-27T08:13:59.024Z,71.07
2023-02-27T08:14:29.151Z,71.17
2023-02-27T08:15:29.132Z,71.16
2023-02-27T08:16:29.652Z,71.12
2023-02-27T08:17:29.146Z,71.10
2023-02-27T08:18:29.104Z,70.77
2023-02-27T08:19:29.106Z,70.89
2023-02-27T08:20:29.067Z,71.08
2023-02-27T08:21:29.561Z,71.00
2023-02-27T08:22:29.042Z,70.97
2023-02-27T08:23:29.041Z,70.73
2023-02-27T08:24:29.020Z,70.73
2023-02-27T08:25:29.009Z,70.78
2023-02-27T08:26:29.321Z,70.55
2023-02-27T08:27:28.978Z,70.54
2023-02-27T08:28:28.990Z,70.23
2023-02-27T08:29:28.974Z,69.83
2023-02-27T08:30:28.946Z,69.56
2023-02-27T08:31:29.114Z,69.66
2023-02-27T08:32:28.947Z,69.78
2023-02-27T08:33:28.991Z,69.85
2023-02-27T08:34:28.899Z,69.93
2023-02-27T08:35:28.900Z,69.87
2023-02-27T08:36:29.324Z,69.87
2023-02-27T08:37:28.875Z,69.89
2023-02-27T08:38:28.859Z,69.78
2023-02-27T08:39:28.833Z,69.70
2023-02-27T08:40:28.818Z,69.57
2023-02-27T08:41:28.812Z,69.71
2023-02-27T08:42:28.818Z,69.73
2023-02-27T08:43:28.784Z,69.83
2023-02-27T08:44:28.792Z,69.83
2023-02-27T08:45:29.499Z,69.96
2023-02-27T08:46:29.084Z,69.47
2023-02-27T08:47:28.926Z,69.23
2023-02-27T08:48:28.712Z,69.25
2023-02-27T08:49:28.721Z,69.44
2023-02-27T08:50:28.693Z,69.13
2023-02-27T08:51:29.180Z,69.14
2023-02-27T08:52:28.663Z,69.02
2023-02-27T08:53:28.687Z,69.06
2023-02-27T08:54:28.646Z,68.99
2023-02-27T08:55:28.626Z,69.09
2023-02-27T08:56:28.924Z,69.04
2023-02-27T08:57:28.598Z,69.08
2023-02-27T08:58:28.604Z,69.27
2023-02-27T08:59:28.602Z,69.38
2023-02-27T09:00:28.569Z,69.32
2023-02-27T09:01:29.254Z,68.97
2023-02-27T09:02:28.559Z,68.47
2023-02-27T09:03:28.790Z,68.45
2023-02-27T09:04:28.517Z,68.34
2023-02-27T09:05:28.520Z,68.40
2023-02-27T09:06:28.847Z,68.28
2023-02-27T09:07:28.478Z,68.36
2023-02-27T09:08:28.470Z,68.15
2023-02-27T09:09:28.503Z,68.11
2023-02-27T09:10:28.458Z,67.95
2023-02-27T09:11:28.782Z,67.74
2023-02-27T09:12:28.414Z,67.75
2023-02-27T09:13:28.428Z,67.86
2023-02-27T09:14:28.386Z,68.05
2023-02-27T09:15:28.391Z,68.25
2023-02-27T09:16:28.785Z,68.37
2023-02-27T09:17:28.339Z,68.16
2023-02-27T09:18:28.337Z,67.76
2023-02-27T09:19:28.320Z,67.68
2023-02-27T09:20:28.320Z,67.55
2023-02-27T09:21:28.301Z,67.35
2023-02-27T09:22:28.291Z,67.31
2023-02-27T09:23:28.272Z,67.08
2023-02-27T09:24:28.265Z,67.12
2023-02-27T09:25:28.272Z,67.02
2023-02-27T09:26:40.904Z,67.05
2023-02-27T09:27:28.225Z,67.10
2023-02-27T09:28:28.243Z,67.17
2023-02-27T09:29:28.228Z,67.25
2023-02-27T09:30:28.197Z,67.08
2023-02-27T09:31:29.496Z,67.03
2023-02-27T09:32:28.375Z,66.97
2023-02-27T09:33:29.301Z,66.81
2023-02-27T09:34:28.156Z,66.72
2023-02-27T09:35:28.171Z,66.58
2023-02-27T09:36:28.532Z,66.61
2023-02-27T09:37:28.101Z,66.41
2023-02-27T09:38:28.714Z,66.56
2023-02-27T09:39:28.065Z,66.71
2023-02-27T09:40:28.735Z,67.04
2023-02-27T09:41:28.339Z,67.03
2023-02-27T09:42:28.048Z,67.15
2023-02-27T09:43:28.029Z,67.48
2023-02-27T09:44:44.813Z,67.57
2023-02-27T09:45:28.037Z,67.65
2023-02-27T09:46:28.255Z,67.70
2023-02-27T09:47:27.969Z,67.95
2023-02-27T09:48:27.950Z,68.23
2023-02-27T09:49:27.936Z,68.75
2023-02-27T09:50:27.968Z,69.15
2023-02-27T09:51:28.397Z,69.31
2023-02-27T09:52:27.961Z,69.54
2023-02-27T09:53:27.969Z,69.87
2023-02-27T09:54:27.892Z,69.95
2023-02-27T09:55:27.853Z,69.98
2023-02-27T09:56:28.188Z,70.07
2023-02-27T09:57:27.864Z,70.22
2023-02-27T09:58:27.827Z,70.42
2023-02-27T09:59:27.815Z,70.59
2023-02-27T10:00:27.795Z,70.68
2023-02-27T10:01:28.250Z,70.71
2023-02-27T10:02:27.830Z,70.82
2023-02-27T10:03:27.858Z,70.72
2023-02-27T10:04:27.748Z,70.63
2023-02-27T10:05:27.732Z,70.61
2023-02-27T10:06:28.166Z,70.49
2023-02-27T10:07:27.718Z,70.45
2023-02-27T10:08:27.692Z,70.41
2023-02-27T10:09:27.678Z,70.24
2023-02-27T10:10:27.669Z,70.09
2023-02-27T10:11:27.674Z,69.91
2023-02-27T10:12:27.680Z,69.61
2023-02-27T10:13:27.672Z,69.25
2023-02-27T10:14:27.639Z,68.89
2023-02-27T10:15:27.654Z,68.90
2023-02-27T10:16:28.057Z,68.78
2023-02-27T10:17:27.637Z,68.79
2023-02-27T10:18:30.466Z,68.92
2023-02-27T10:19:27.615Z,68.70
2023-02-27T10:20:27.554Z,68.15
2023-02-27T10:21:29.938Z,67.46
2023-02-27T10:22:27.531Z,66.95
2023-02-27T10:23:27.514Z,66.42
2023-02-27T10:24:27.560Z,65.89
2023-02-27T10:25:31.822Z,65.77
2023-02-27T10:26:27.526Z,65.66
2023-02-27T10:27:27.471Z,65.50
2023-02-27T10:28:27.489Z,65.51
2023-02-27T10:29:27.450Z,65.71
2023-02-27T10:30:30.881Z,65.85
2023-02-27T10:31:27.750Z,65.68
2023-02-27T10:32:27.428Z,65.85
2023-02-27T10:33:28.465Z,66.03
2023-02-27T10:34:27.381Z,65.82
2023-02-27T10:35:27.425Z,65.19
2023-02-27T10:36:34.029Z,65.11
2023-02-27T10:37:27.349Z,65.23
2023-02-27T10:38:27.333Z,65.14
2023-02-27T10:39:27.307Z,65.23
2023-02-27T10:40:27.295Z,65.26
2023-02-27T10:41:27.602Z,65.26
2023-02-27T10:42:27.287Z,64.59
2023-02-27T10:43:27.262Z,64.58
2023-02-27T10:44:27.243Z,64.99
2023-02-27T10:45:27.273Z,65.08
2023-02-27T10:46:27.762Z,65.32
2023-02-27T10:47:27.223Z,65.03
2023-02-27T10:48:27.796Z,65.04
2023-02-27T10:49:27.210Z,65.16
2023-02-27T10:50:27.179Z,65.33
2023-02-27T10:51:27.477Z,65.23
2023-02-27T10:52:27.162Z,65.09
2023-02-27T10:53:27.135Z,65.28
2023-02-27T10:54:27.111Z,65.10
2023-02-27T10:55:27.097Z,64.97
2023-02-27T10:56:27.470Z,64.57
2023-02-27T10:57:27.080Z,64.39
2023-02-27T10:58:28.476Z,64.46
2023-02-27T10:59:27.052Z,64.50
2023-02-27T11:00:27.056Z,64.43
2023-02-27T11:01:27.392Z,64.24
2023-02-27T11:02:27.034Z,64.13
2023-02-27T11:03:27.010Z,63.72
2023-02-27T11:04:27.027Z,63.48
2023-02-27T11:05:26.980Z,63.16
2023-02-27T11:06:26.996Z,63.08
2023-02-27T11:07:26.957Z,62.97
2023-02-27T11:08:26.936Z,63.27
2023-02-27T11:09:26.920Z,63.37
2023-02-27T11:10:26.979Z,63.03
2023-02-27T11:11:27.237Z,62.46
2023-02-27T11:12:26.890Z,61.84
2023-02-27T11:13:26.892Z,61.98
2023-02-27T11:14:26.859Z,61.94
2023-02-27T11:15:26.867Z,61.97
2023-02-27T11:16:26.838Z,61.82
2023-02-27T11:17:27.734Z,61.83
2023-02-27T11:18:26.825Z,61.84
2023-02-27T11:19:26.809Z,61.81
2023-02-27T11:20:26.785Z,62.13
2023-02-27T11:21:27.278Z,62.33
2023-02-27T11:22:26.764Z,62.35
2023-02-27T11:23:26.758Z,62.31
2023-02-27T11:24:26.761Z,62.16
2023-02-27T11:25:26.740Z,61.95
2023-02-27T11:26:26.720Z,61.68
2023-02-27T11:27:26.787Z,61.56
2023-02-27T11:28:26.733Z,61.19
2023-02-27T11:29:26.690Z,61.11
2023-02-27T11:30:26.668Z,60.84
2023-02-27T11:31:27.173Z,60.36
2023-02-27T11:32:26.674Z,60.17
2023-02-27T11:33:26.637Z,60.58
2023-02-27T11:34:26.635Z,60.64
2023-02-27T11:35:26.595Z,60.53
2023-02-27T11:36:26.603Z,60.62
2023-02-27T11:37:26.598Z,60.84
2023-02-27T11:38:26.584Z,60.73
2023-02-27T11:39:26.571Z,60.45
2023-02-27T11:40:26.557Z,60.28
2023-02-27T11:41:26.795Z,60.06
2023-02-27T11:42:26.517Z,60.44
2023-02-27T11:43:26.560Z,60.51
2023-02-27T11:44:40.828Z,60.20
2023-02-27T11:46:13.304Z,60.15
2023-02-27T11:46:46.929Z,60.34
2023-02-27T11:47:26.490Z,60.25
2023-02-27T11:48:26.446Z,59.71
2023-02-27T11:49:26.424Z,59.98
2023-02-27T11:50:26.423Z,59.94
2023-02-27T11:51:26.729Z,59.50
2023-02-27T11:52:26.407Z,59.91
2023-02-27T11:53:26.432Z,59.70
2023-02-27T11:54:26.375Z,59.90
2023-02-27T11:55:26.366Z,60.24
2023-02-27T11:56:26.344Z,60.05
2023-02-27T11:57:26.357Z,59.99
2023-02-27T11:58:26.318Z,59.90
2023-02-27T11:59:26.313Z,59.77
2023-02-27T12:00:26.298Z,59.88
2023-02-27T12:01:26.594Z,60.12
2023-02-27T12:02:26.292Z,59.98
2023-02-27T12:03:26.265Z,59.63
2023-02-27T12:04:26.252Z,59.52
2023-02-27T12:05:26.229Z,59.46
2023-02-27T12:06:26.200Z,59.34
2023-02-27T12:07:26.203Z,59.91
2023-02-27T12:08:26.193Z,60.16
2023-02-27T12:09:26.167Z,60.03
2023-02-27T12:10:26.173Z,60.07
2023-02-27T12:11:26.170Z,60.01
2023-02-27T12:12:26.155Z,59.58
2023-02-27T12:13:26.132Z,59.79
2023-02-27T12:14:26.161Z,60.07
2023-02-27T12:15:26.096Z,60.20
2023-02-27T12:16:26.627Z,60.09
2023-02-27T12:17:26.133Z,60.06
2023-02-27T12:18:26.055Z,60.33
2023-02-27T12:19:26.053Z,60.36
2023-02-27T12:20:26.023Z,60.83
2023-02-27T12:21:26.023Z,61.24
2023-02-27T12:22:26.024Z,61.58
2023-02-27T12:23:25.997Z,61.42
2023-02-27T12:24:26.002Z,61.48
2023-02-27T12:25:25.993Z,61.42
2023-02-27T12:26:26.338Z,61.44
2023-02-27T12:27:25.940Z,61.46
2023-02-27T12:28:25.927Z,61.59
2023-02-27T12:29:25.931Z,61.99
2023-02-27T12:30:25.895Z,61.29
2023-02-27T12:31:26.362Z,61.61
2023-02-27T12:32:26.043Z,61.56
2023-02-27T12:33:25.858Z,61.67
2023-02-27T12:34:25.852Z,61.31
2023-02-27T12:35:25.933Z,61.04
2023-02-27T12:36:25.821Z,60.64
2023-02-27T12:37:26.741Z,60.41
2023-02-27T12:38:25.790Z,60.28
2023-02-27T12:39:25.805Z,60.35
2023-02-27T12:40:25.771Z,60.19
2023-02-27T12:41:26.110Z,59.89
2023-02-27T12:42:25.770Z,59.93
2023-02-27T12:43:25.759Z,60.11
2023-02-27T12:44:25.728Z,60.45
2023-02-27T12:45:25.732Z,60.03
2023-02-27T12:46:25.707Z,59.43
2023-02-27T12:47:26.297Z,59.30
2023-02-27T12:48:25.666Z,59.72
2023-02-27T12:49:25.657Z,59.98
2023-02-27T12:50:25.647Z,60.15
2023-02-27T12:51:26.194Z,60.07
2023-02-27T12:52:25.623Z,59.91
2023-02-27T12:53:25.604Z,59.53